sensor_id;sensor_type;location;lat;lon;timestamp;P1;durP1;ratioP1;P2;durP2;ratioP2
8610;SDS011;4343;53.648;10.098;2022-08-02T06:24:44;5.88;;;2.95;;
8610;SDS011;4343;53.648;10.098;2022-08-02T06:27:13;4.75;;;2.72;;
8610;SDS011;4343;53.648;10.098;2022-08-02T06:34:38;6.72;;;2.53;;
8610;SDS011;4343;53.648;10.098;2022-08-02T06:39:44;4.13;;;3.00;;
8610;SDS011;4343;53.648;10.098;2022-08-02T06:42:14;4.25;;;2.60;;
8610;SDS011;4343;53.648;10.098;2022-08-02T06:44:44;3.17;;;2.85;;
8610;SDS011;4343;53.648;10.098;2022-08-02T06:47:10;4.03;;;2.80;;
8610;SDS011;4343;53.648;10.098;2022-08-02T06:49:35;6.72;;;2.60;;
8610;SDS011;4343;53.648;10.098;2022-08-02T06:52:01;5.50;;;3.03;;
8610;SDS011;4343;53.648;10.098;2022-08-02T06:54:28;2.50;;;2.33;;
8610;SDS011;4343;53.648;10.098;2022-08-02T06:56:53;4.82;;;2.60;;
8610;SDS011;4343;53.648;10.098;2022-08-02T06:59:19;5.45;;;2.42;;
8610;SDS011;4343;53.648;10.098;2022-08-02T07:01:44;3.15;;;2.65;;
8610;SDS011;4343;53.648;10.098;2022-08-02T07:04:10;8.20;;;2.60;;
8610;SDS011;4343;53.648;10.098;2022-08-02T07:06:36;3.83;;;2.30;;
8610;SDS011;4343;53.648;10.098;2022-08-02T07:09:01;5.32;;;2.58;;
8610;SDS011;4343;53.648;10.098;2022-08-02T07:18:43;3.95;;;2.10;;
8610;SDS011;4343;53.648;10.098;2022-08-02T07:21:09;3.67;;;2.23;;
8610;SDS011;4343;53.648;10.098;2022-08-02T07:23:34;3.80;;;2.80;;
8610;SDS011;4343;53.648;10.098;2022-08-02T07:26:00;3.50;;;2.70;;
8610;SDS011;4343;53.648;10.098;2022-08-02T07:28:26;3.38;;;2.42;;
8610;SDS011;4343;53.648;10.098;2022-08-02T07:30:51;3.83;;;2.60;;
8610;SDS011;4343;53.648;10.098;2022-08-02T07:33:17;3.70;;;2.30;;
8610;SDS011;4343;53.648;10.098;2022-08-02T07:35:42;3.67;;;2.30;;
8610;SDS011;4343;53.648;10.098;2022-08-02T07:38:08;3.30;;;2.08;;
8610;SDS011;4343;53.648;10.098;2022-08-02T07:40:33;2.50;;;1.80;;
8610;SDS011;4343;53.648;10.098;2022-08-02T07:42:59;3.33;;;1.75;;
8610;SDS011;4343;53.648;10.098;2022-08-02T07:45:25;5.30;;;2.30;;
8610;SDS011;4343;53.648;10.098;2022-08-02T07:47:52;9.73;;;2.40;;
8610;SDS011;4343;53.648;10.098;2022-08-02T07:50:18;8.75;;;2.00;;
8610;SDS011;4343;53.648;10.098;2022-08-02T07:52:44;3.45;;;2.00;;
8610;SDS011;4343;53.648;10.098;2022-08-02T07:55:11;5.60;;;2.13;;
8610;SDS011;4343;53.648;10.098;2022-08-02T08:00:05;3.85;;;2.33;;
8610;SDS011;4343;53.648;10.098;2022-08-02T08:02:33;3.55;;;2.60;;
8610;SDS011;4343;53.648;10.098;2022-08-02T08:04:59;4.72;;;2.58;;
8610;SDS011;4343;53.648;10.098;2022-08-02T08:07:26;5.22;;;2.40;;
8610;SDS011;4343;53.648;10.098;2022-08-02T08:09:51;4.38;;;2.47;;
8610;SDS011;4343;53.648;10.098;2022-08-02T08:12:17;2.33;;;2.13;;
8610;SDS011;4343;53.648;10.098;2022-08-02T08:14:43;3.43;;;2.37;;
8610;SDS011;4343;53.648;10.098;2022-08-02T08:17:08;4.05;;;2.35;;
8610;SDS011;4343;53.648;10.098;2022-08-02T08:19:34;2.80;;;2.50;;
8610;SDS011;4343;53.648;10.098;2022-08-02T08:22:00;2.45;;;2.25;;
8610;SDS011;4343;53.648;10.098;2022-08-02T08:24:26;3.25;;;2.05;;
8610;SDS011;4343;53.648;10.098;2022-08-02T08:26:52;4.65;;;1.95;;
8610;SDS011;4343;53.648;10.098;2022-08-02T08:29:18;4.45;;;2.13;;
8610;SDS011;4343;53.648;10.098;2022-08-02T08:31:43;4.28;;;1.80;;
8610;SDS011;4343;53.648;10.098;2022-08-02T08:34:09;3.83;;;1.95;;
8610;SDS011;4343;53.648;10.098;2022-08-02T08:36:34;1.80;;;1.70;;
8610;SDS011;4343;53.648;10.098;2022-08-02T08:39:00;3.95;;;1.73;;
8610;SDS011;4343;53.648;10.098;2022-08-02T08:41:25;2.70;;;1.90;;
8610;SDS011;4343;53.648;10.098;2022-08-02T08:43:51;4.03;;;1.77;;
8610;SDS011;4343;53.648;10.098;2022-08-02T08:46:20;3.78;;;1.70;;
8610;SDS011;4343;53.648;10.098;2022-08-02T08:49:08;2.45;;;1.55;;
8610;SDS011;4343;53.648;10.098;2022-08-02T08:51:37;2.88;;;1.98;;
8610;SDS011;4343;53.648;10.098;2022-08-02T08:54:05;4.32;;;2.00;;
8610;SDS011;4343;53.648;10.098;2022-08-02T08:56:34;4.20;;;1.90;;
8610;SDS011;4343;53.648;10.098;2022-08-02T08:59:01;2.55;;;2.05;;
8610;SDS011;4343;53.648;10.098;2022-08-02T09:01:28;2.55;;;2.03;;
8610;SDS011;4343;53.648;10.098;2022-08-02T09:03:53;4.13;;;2.20;;
8610;SDS011;4343;53.648;10.098;2022-08-02T09:06:19;2.85;;;2.00;;
8610;SDS011;4343;53.648;10.098;2022-08-02T09:08:45;2.50;;;2.08;;
8610;SDS011;4343;53.648;10.098;2022-08-02T09:11:32;1.83;;;1.73;;
8610;SDS011;4343;53.648;10.098;2022-08-02T09:13:59;2.58;;;1.67;;
8610;SDS011;4343;53.648;10.098;2022-08-02T09:16:27;1.85;;;1.60;;
8610;SDS011;4343;53.648;10.098;2022-08-02T09:18:57;3.65;;;1.88;;
8610;SDS011;4343;53.648;10.098;2022-08-02T09:21:24;3.13;;;1.98;;
8610;SDS011;4343;53.648;10.098;2022-08-02T09:24:01;4.10;;;1.90;;
8610;SDS011;4343;53.648;10.098;2022-08-02T09:26:26;4.18;;;1.63;;
8610;SDS011;4343;53.648;10.098;2022-08-02T09:28:58;3.00;;;1.60;;
8610;SDS011;4343;53.648;10.098;2022-08-02T09:31:25;4.18;;;1.80;;
8610;SDS011;4343;53.648;10.098;2022-08-02T09:33:52;2.92;;;2.13;;
8610;SDS011;4343;53.648;10.098;2022-08-02T09:36:19;3.85;;;1.70;;
8610;SDS011;4343;53.648;10.098;2022-08-02T09:38:56;3.15;;;1.90;;
8610;SDS011;4343;53.648;10.098;2022-08-02T09:41:24;3.58;;;1.80;;
8610;SDS011;4343;53.648;10.098;2022-08-02T09:43:55;2.78;;;1.67;;
8610;SDS011;4343;53.648;10.098;2022-08-02T09:46:22;3.42;;;1.75;;
8610;SDS011;4343;53.648;10.098;2022-08-02T09:51:24;6.30;;;1.67;;
8610;SDS011;4343;53.648;10.098;2022-08-02T09:53:52;3.17;;;1.77;;
8610;SDS011;4343;53.648;10.098;2022-08-02T09:56:20;3.33;;;1.73;;
8610;SDS011;4343;53.648;10.098;2022-08-02T09:58:48;2.35;;;1.88;;
8610;SDS011;4343;53.648;10.098;2022-08-02T10:01:17;3.88;;;2.38;;
8610;SDS011;4343;53.648;10.098;2022-08-02T10:03:53;3.90;;;1.95;;
8610;SDS011;4343;53.648;10.098;2022-08-02T10:06:24;3.25;;;1.73;;
8610;SDS011;4343;53.648;10.098;2022-08-02T10:08:50;4.50;;;2.17;;
8610;SDS011;4343;53.648;10.098;2022-08-02T10:11:17;2.00;;;1.83;;
8610;SDS011;4343;53.648;10.098;2022-08-02T10:13:48;2.92;;;1.70;;
8610;SDS011;4343;53.648;10.098;2022-08-02T10:16:14;3.63;;;1.77;;
8610;SDS011;4343;53.648;10.098;2022-08-02T10:18:42;2.92;;;1.77;;
8610;SDS011;4343;53.648;10.098;2022-08-02T10:21:14;2.00;;;1.55;;
8610;SDS011;4343;53.648;10.098;2022-08-02T10:23:46;4.95;;;2.20;;
8610;SDS011;4343;53.648;10.098;2022-08-02T10:26:17;2.65;;;2.15;;
8610;SDS011;4343;53.648;10.098;2022-08-02T10:28:45;3.42;;;2.10;;
8610;SDS011;4343;53.648;10.098;2022-08-02T10:31:13;3.15;;;1.75;;
8610;SDS011;4343;53.648;10.098;2022-08-02T10:33:42;3.15;;;1.95;;
8610;SDS011;4343;53.648;10.098;2022-08-02T10:36:09;1.85;;;1.63;;
8610;SDS011;4343;53.648;10.098;2022-08-02T10:38:37;2.70;;;1.67;;
8610;SDS011;4343;53.648;10.098;2022-08-02T10:41:02;3.30;;;1.80;;
8610;SDS011;4343;53.648;10.098;2022-08-02T10:49:04;2.35;;;1.88;;
8610;SDS011;4343;53.648;10.098;2022-08-02T10:51:52;2.22;;;1.45;;
8610;SDS011;4343;53.648;10.098;2022-08-02T10:54:19;2.10;;;1.90;;
8610;SDS011;4343;53.648;10.098;2022-08-02T10:56:48;3.17;;;1.70;;
8610;SDS011;4343;53.648;10.098;2022-08-02T10:59:34;2.88;;;1.70;;
8610;SDS011;4343;53.648;10.098;2022-08-02T11:02:02;3.50;;;1.75;;
8610;SDS011;4343;53.648;10.098;2022-08-02T11:07:14;2.10;;;1.90;;
8610;SDS011;4343;53.648;10.098;2022-08-02T11:09:42;1.85;;;1.70;;
8610;SDS011;4343;53.648;10.098;2022-08-02T11:12:10;2.42;;;1.63;;
8610;SDS011;4343;53.648;10.098;2022-08-02T11:14:38;2.45;;;1.77;;
8610;SDS011;4343;53.648;10.098;2022-08-02T11:19:31;1.73;;;1.50;;
8610;SDS011;4343;53.648;10.098;2022-08-02T11:22:03;2.78;;;1.70;;
8610;SDS011;4343;53.648;10.098;2022-08-02T11:24:30;1.30;;;1.30;;
8610;SDS011;4343;53.648;10.098;2022-08-02T11:27:04;2.30;;;1.30;;
8610;SDS011;4343;53.648;10.098;2022-08-02T11:29:31;2.08;;;1.67;;
8610;SDS011;4343;53.648;10.098;2022-08-02T11:32:00;1.75;;;1.65;;
8610;SDS011;4343;53.648;10.098;2022-08-02T11:34:26;2.10;;;1.70;;
8610;SDS011;4343;53.648;10.098;2022-08-02T11:36:52;1.85;;;1.67;;
8610;SDS011;4343;53.648;10.098;2022-08-02T11:39:19;2.22;;;1.80;;
8610;SDS011;4343;53.648;10.098;2022-08-02T11:41:53;1.50;;;1.40;;
8610;SDS011;4343;53.648;10.098;2022-08-02T11:44:23;2.67;;;1.70;;
8610;SDS011;4343;53.648;10.098;2022-08-02T11:46:53;3.00;;;1.50;;
8610;SDS011;4343;53.648;10.098;2022-08-02T11:49:26;1.40;;;1.30;;
8610;SDS011;4343;53.648;10.098;2022-08-02T11:52:00;1.55;;;1.48;;
8610;SDS011;4343;53.648;10.098;2022-08-02T11:54:31;2.10;;;1.20;;
8610;SDS011;4343;53.648;10.098;2022-08-02T11:57:11;4.10;;;1.65;;
8610;SDS011;4343;53.648;10.098;2022-08-02T11:59:43;1.75;;;1.65;;
8610;SDS011;4343;53.648;10.098;2022-08-02T12:02:10;2.35;;;1.70;;
8610;SDS011;4343;53.648;10.098;2022-08-02T12:04:36;2.10;;;1.48;;
8610;SDS011;4343;53.648;10.098;2022-08-02T12:07:04;1.23;;;1.13;;
8610;SDS011;4343;53.648;10.098;2022-08-02T12:09:31;1.77;;;1.67;;
8610;SDS011;4343;53.648;10.098;2022-08-02T12:11:57;2.78;;;1.58;;
8610;SDS011;4343;53.648;10.098;2022-08-02T12:14:25;1.50;;;1.40;;
8610;SDS011;4343;53.648;10.098;2022-08-02T12:16:51;2.00;;;1.58;;
8610;SDS011;4343;53.648;10.098;2022-08-02T12:19:36;3.08;;;1.65;;
8610;SDS011;4343;53.648;10.098;2022-08-02T12:24:43;1.90;;;1.77;;
8610;SDS011;4343;53.648;10.098;2022-08-02T12:27:15;1.63;;;1.30;;
8610;SDS011;4343;53.648;10.098;2022-08-02T12:29:57;1.55;;;1.45;;
8610;SDS011;4343;53.648;10.098;2022-08-02T12:32:28;2.35;;;1.80;;
8610;SDS011;4343;53.648;10.098;2022-08-02T12:35:07;1.70;;;1.60;;
8610;SDS011;4343;53.648;10.098;2022-08-02T12:37:39;1.67;;;1.58;;
8610;SDS011;4343;53.648;10.098;2022-08-02T12:42:51;2.72;;;1.65;;
8610;SDS011;4343;53.648;10.098;2022-08-02T12:45:19;1.33;;;1.23;;
8610;SDS011;4343;53.648;10.098;2022-08-02T12:47:52;3.50;;;1.65;;
8610;SDS011;4343;53.648;10.098;2022-08-02T12:50:24;2.35;;;2.00;;
8610;SDS011;4343;53.648;10.098;2022-08-02T12:53:05;3.00;;;1.50;;
8610;SDS011;4343;53.648;10.098;2022-08-02T12:55:32;3.47;;;1.67;;
8610;SDS011;4343;53.648;10.098;2022-08-02T12:58:03;3.92;;;1.52;;
8610;SDS011;4343;53.648;10.098;2022-08-02T13:00:30;1.50;;;1.40;;
8610;SDS011;4343;53.648;10.098;2022-08-02T13:02:57;1.42;;;1.33;;
8610;SDS011;4343;53.648;10.098;2022-08-02T13:05:23;1.40;;;1.30;;
8610;SDS011;4343;53.648;10.098;2022-08-02T13:07:50;2.03;;;1.58;;
8610;SDS011;4343;53.648;10.098;2022-08-02T13:10:16;3.00;;;1.75;;
8610;SDS011;4343;53.648;10.098;2022-08-02T13:12:42;2.45;;;1.50;;
8610;SDS011;4343;53.648;10.098;2022-08-02T13:15:08;1.77;;;1.67;;
8610;SDS011;4343;53.648;10.098;2022-08-02T13:17:35;2.75;;;1.42;;
8610;SDS011;4343;53.648;10.098;2022-08-02T13:20:00;2.22;;;1.48;;
8610;SDS011;4343;53.648;10.098;2022-08-02T13:22:26;2.67;;;1.67;;
8610;SDS011;4343;53.648;10.098;2022-08-02T13:24:52;2.33;;;1.60;;
8610;SDS011;4343;53.648;10.098;2022-08-02T13:27:18;1.33;;;1.23;;
8610;SDS011;4343;53.648;10.098;2022-08-02T13:29:44;1.58;;;1.42;;
8610;SDS011;4343;53.648;10.098;2022-08-02T13:32:09;1.60;;;1.52;;
8610;SDS011;4343;53.648;10.098;2022-08-02T13:34:35;1.85;;;1.55;;
8610;SDS011;4343;53.648;10.098;2022-08-02T13:37:01;1.63;;;1.45;;
8610;SDS011;4343;53.648;10.098;2022-08-02T13:39:28;2.20;;;1.42;;
8610;SDS011;4343;53.648;10.098;2022-08-02T13:41:54;1.63;;;1.52;;
8610;SDS011;4343;53.648;10.098;2022-08-02T13:44:19;2.30;;;1.88;;
8610;SDS011;4343;53.648;10.098;2022-08-02T13:46:45;2.47;;;1.42;;
8610;SDS011;4343;53.648;10.098;2022-08-02T13:49:11;2.00;;;1.65;;
8610;SDS011;4343;53.648;10.098;2022-08-02T13:51:37;1.60;;;1.50;;
8610;SDS011;4343;53.648;10.098;2022-08-02T13:54:03;3.00;;;1.88;;
8610;SDS011;4343;53.648;10.098;2022-08-02T13:56:29;1.25;;;1.15;;
8610;SDS011;4343;53.648;10.098;2022-08-02T13:58:54;1.88;;;1.65;;
8610;SDS011;4343;53.648;10.098;2022-08-02T14:01:22;3.03;;;1.42;;
8610;SDS011;4343;53.648;10.098;2022-08-02T14:03:49;1.30;;;1.30;;
8610;SDS011;4343;53.648;10.098;2022-08-02T14:06:14;1.45;;;1.35;;
8610;SDS011;4343;53.648;10.098;2022-08-02T14:08:40;3.05;;;1.40;;
8610;SDS011;4343;53.648;10.098;2022-08-02T14:11:05;1.50;;;1.40;;
8610;SDS011;4343;53.648;10.098;2022-08-02T14:13:31;1.60;;;1.48;;
8610;SDS011;4343;53.648;10.098;2022-08-02T14:15:56;2.78;;;1.42;;
8610;SDS011;4343;53.648;10.098;2022-08-02T14:18:23;1.60;;;1.50;;
8610;SDS011;4343;53.648;10.098;2022-08-02T14:20:49;1.35;;;1.27;;
8610;SDS011;4343;53.648;10.098;2022-08-02T14:23:14;1.50;;;1.40;;
8610;SDS011;4343;53.648;10.098;2022-08-02T14:25:40;1.65;;;1.40;;
8610;SDS011;4343;53.648;10.098;2022-08-02T14:28:06;1.40;;;1.30;;
8610;SDS011;4343;53.648;10.098;2022-08-02T14:30:32;1.75;;;1.58;;
8610;SDS011;4343;53.648;10.098;2022-08-02T14:32:58;2.55;;;1.55;;
8610;SDS011;4343;53.648;10.098;2022-08-02T14:35:23;2.38;;;1.60;;
8610;SDS011;4343;53.648;10.098;2022-08-02T14:37:49;1.50;;;1.40;;
8610;SDS011;4343;53.648;10.098;2022-08-02T14:40:14;1.90;;;1.50;;
8610;SDS011;4343;53.648;10.098;2022-08-02T14:42:40;1.52;;;1.40;;
8610;SDS011;4343;53.648;10.098;2022-08-02T14:45:06;2.20;;;1.58;;
8610;SDS011;4343;53.648;10.098;2022-08-02T14:47:32;1.40;;;1.40;;
8610;SDS011;4343;53.648;10.098;2022-08-02T14:49:57;1.60;;;1.50;;
8610;SDS011;4343;53.648;10.098;2022-08-02T14:52:23;1.65;;;1.30;;
8610;SDS011;4343;53.648;10.098;2022-08-02T14:54:49;1.77;;;1.67;;
8610;SDS011;4343;53.648;10.098;2022-08-02T14:57:14;1.55;;;1.45;;
8610;SDS011;4343;53.648;10.098;2022-08-02T14:59:40;1.48;;;1.33;;
8610;SDS011;4343;53.648;10.098;2022-08-02T15:02:06;3.22;;;1.48;;
8610;SDS011;4343;53.648;10.098;2022-08-02T15:04:31;1.83;;;1.67;;
8610;SDS011;4343;53.648;10.098;2022-08-02T15:06:58;1.77;;;1.67;;
8610;SDS011;4343;53.648;10.098;2022-08-02T15:09:24;1.25;;;1.25;;
8610;SDS011;4343;53.648;10.098;2022-08-02T15:11:50;1.60;;;1.60;;
8610;SDS011;4343;53.648;10.098;2022-08-02T15:14:17;1.60;;;1.50;;
8610;SDS011;4343;53.648;10.098;2022-08-02T15:16:44;1.27;;;1.27;;
8610;SDS011;4343;53.648;10.098;2022-08-02T15:19:09;1.55;;;1.45;;
8610;SDS011;4343;53.648;10.098;2022-08-02T15:21:35;2.13;;;1.38;;
8610;SDS011;4343;53.648;10.098;2022-08-02T15:24:00;2.25;;;1.58;;
8610;SDS011;4343;53.648;10.098;2022-08-02T15:26:26;1.60;;;1.50;;
8610;SDS011;4343;53.648;10.098;2022-08-02T15:28:52;1.67;;;1.60;;
8610;SDS011;4343;53.648;10.098;2022-08-02T15:31:17;1.55;;;1.45;;
8610;SDS011;4343;53.648;10.098;2022-08-02T15:33:43;3.60;;;1.63;;
8610;SDS011;4343;53.648;10.098;2022-08-02T15:36:09;1.42;;;1.38;;
8610;SDS011;4343;53.648;10.098;2022-08-02T15:38:35;1.35;;;1.27;;
8610;SDS011;4343;53.648;10.098;2022-08-02T15:41:01;2.00;;;1.75;;
8610;SDS011;4343;53.648;10.098;2022-08-02T15:43:27;1.58;;;1.50;;
8610;SDS011;4343;53.648;10.098;2022-08-02T15:45:52;1.60;;;1.50;;
8610;SDS011;4343;53.648;10.098;2022-08-02T15:48:18;1.45;;;1.45;;
8610;SDS011;4343;53.648;10.098;2022-08-02T15:50:44;1.67;;;1.67;;
8610;SDS011;4343;53.648;10.098;2022-08-02T15:53:09;1.70;;;1.60;;
8610;SDS011;4343;53.648;10.098;2022-08-02T15:55:35;2.25;;;1.50;;
8610;SDS011;4343;53.648;10.098;2022-08-02T15:58:02;1.63;;;1.50;;
8610;SDS011;4343;53.648;10.098;2022-08-02T16:00:28;1.70;;;1.60;;
8610;SDS011;4343;53.648;10.098;2022-08-02T16:02:54;1.90;;;1.80;;
8610;SDS011;4343;53.648;10.098;2022-08-02T16:05:20;2.15;;;1.88;;
8610;SDS011;4343;53.648;10.098;2022-08-02T16:07:46;1.60;;;1.50;;
8610;SDS011;4343;53.648;10.098;2022-08-02T16:10:12;2.40;;;1.75;;
8610;SDS011;4343;53.648;10.098;2022-08-02T16:12:39;2.10;;;1.90;;
8610;SDS011;4343;53.648;10.098;2022-08-02T16:15:05;2.15;;;1.80;;
8610;SDS011;4343;53.648;10.098;2022-08-02T16:17:31;2.08;;;1.88;;
8610;SDS011;4343;53.648;10.098;2022-08-02T16:19:57;2.10;;;1.88;;
8610;SDS011;4343;53.648;10.098;2022-08-02T16:22:22;2.75;;;1.98;;
8610;SDS011;4343;53.648;10.098;2022-08-02T16:24:48;2.03;;;1.92;;
8610;SDS011;4343;53.648;10.098;2022-08-02T16:27:14;1.50;;;1.50;;
8610;SDS011;4343;53.648;10.098;2022-08-02T16:29:40;1.50;;;1.50;;
8610;SDS011;4343;53.648;10.098;2022-08-02T16:32:06;2.28;;;2.08;;
8610;SDS011;4343;53.648;10.098;2022-08-02T16:34:32;2.78;;;1.60;;
8610;SDS011;4343;53.648;10.098;2022-08-02T16:36:58;1.70;;;1.60;;
8610;SDS011;4343;53.648;10.098;2022-08-02T16:39:24;1.90;;;1.80;;
8610;SDS011;4343;53.648;10.098;2022-08-02T16:41:50;1.60;;;1.60;;
8610;SDS011;4343;53.648;10.098;2022-08-02T16:44:15;2.17;;;1.98;;
8610;SDS011;4343;53.648;10.098;2022-08-02T16:46:41;1.98;;;1.80;;
8610;SDS011;4343;53.648;10.098;2022-08-02T16:49:06;1.80;;;1.70;;
8610;SDS011;4343;53.648;10.098;2022-08-02T16:51:32;1.67;;;1.58;;
8610;SDS011;4343;53.648;10.098;2022-08-02T16:53:58;2.13;;;1.90;;
8610;SDS011;4343;53.648;10.098;2022-08-02T16:56:23;1.90;;;1.80;;
8610;SDS011;4343;53.648;10.098;2022-08-02T16:58:49;1.60;;;1.52;;
8610;SDS011;4343;53.648;10.098;2022-08-02T17:01:14;2.13;;;1.92;;
8610;SDS011;4343;53.648;10.098;2022-08-02T17:03:40;1.90;;;1.80;;
8610;SDS011;4343;53.648;10.098;2022-08-02T17:06:06;1.85;;;1.75;;
8610;SDS011;4343;53.648;10.098;2022-08-02T17:08:31;3.08;;;1.80;;
8610;SDS011;4343;53.648;10.098;2022-08-02T17:10:57;2.42;;;1.85;;
8610;SDS011;4343;53.648;10.098;2022-08-02T17:13:22;1.48;;;1.40;;
8610;SDS011;4343;53.648;10.098;2022-08-02T17:15:48;1.77;;;1.73;;
8610;SDS011;4343;53.648;10.098;2022-08-02T17:18:13;1.88;;;1.70;;
8610;SDS011;4343;53.648;10.098;2022-08-02T17:20:39;1.85;;;1.75;;
8610;SDS011;4343;53.648;10.098;2022-08-02T17:23:05;1.50;;;1.50;;
8610;SDS011;4343;53.648;10.098;2022-08-02T17:25:30;2.03;;;1.92;;
8610;SDS011;4343;53.648;10.098;2022-08-02T17:27:56;1.60;;;1.60;;
8610;SDS011;4343;53.648;10.098;2022-08-02T17:30:22;1.80;;;1.70;;
8610;SDS011;4343;53.648;10.098;2022-08-02T17:32:48;1.50;;;1.50;;
8610;SDS011;4343;53.648;10.098;2022-08-02T17:35:14;2.00;;;1.90;;
8610;SDS011;4343;53.648;10.098;2022-08-02T17:37:39;1.70;;;1.70;;
8610;SDS011;4343;53.648;10.098;2022-08-02T17:40:05;2.25;;;1.90;;
8610;SDS011;4343;53.648;10.098;2022-08-02T17:42:32;2.17;;;2.08;;
8610;SDS011;4343;53.648;10.098;2022-08-02T17:44:58;2.05;;;1.80;;
8610;SDS011;4343;53.648;10.098;2022-08-02T17:47:24;2.15;;;1.92;;
8610;SDS011;4343;53.648;10.098;2022-08-02T17:49:51;1.90;;;1.80;;
8610;SDS011;4343;53.648;10.098;2022-08-02T17:52:17;1.63;;;1.63;;
8610;SDS011;4343;53.648;10.098;2022-08-02T17:54:44;1.60;;;1.50;;
8610;SDS011;4343;53.648;10.098;2022-08-02T17:57:10;2.05;;;1.95;;
8610;SDS011;4343;53.648;10.098;2022-08-02T17:59:36;1.60;;;1.50;;
8610;SDS011;4343;53.648;10.098;2022-08-02T18:02:02;1.67;;;1.58;;
8610;SDS011;4343;53.648;10.098;2022-08-02T18:04:28;1.60;;;1.60;;
8610;SDS011;4343;53.648;10.098;2022-08-02T18:06:55;2.53;;;2.00;;
8610;SDS011;4343;53.648;10.098;2022-08-02T18:09:23;1.95;;;1.85;;
8610;SDS011;4343;53.648;10.098;2022-08-02T18:11:50;1.73;;;1.63;;
8610;SDS011;4343;53.648;10.098;2022-08-02T18:14:15;2.28;;;1.80;;
8610;SDS011;4343;53.648;10.098;2022-08-02T18:16:42;1.67;;;1.67;;
8610;SDS011;4343;53.648;10.098;2022-08-02T18:19:10;1.60;;;1.50;;
8610;SDS011;4343;53.648;10.098;2022-08-02T18:21:36;1.80;;;1.70;;
8610;SDS011;4343;53.648;10.098;2022-08-02T18:24:01;1.88;;;1.70;;
8610;SDS011;4343;53.648;10.098;2022-08-02T18:26:27;1.75;;;1.65;;
8610;SDS011;4343;53.648;10.098;2022-08-02T18:28:54;1.65;;;1.65;;
8610;SDS011;4343;53.648;10.098;2022-08-02T18:31:20;1.55;;;1.55;;
8610;SDS011;4343;53.648;10.098;2022-08-02T18:33:46;2.03;;;1.92;;
8610;SDS011;4343;53.648;10.098;2022-08-02T18:36:12;2.10;;;2.00;;
8610;SDS011;4343;53.648;10.098;2022-08-02T18:38:38;1.75;;;1.65;;
8610;SDS011;4343;53.648;10.098;2022-08-02T18:41:05;1.52;;;1.50;;
8610;SDS011;4343;53.648;10.098;2022-08-02T18:43:31;1.92;;;1.83;;
8610;SDS011;4343;53.648;10.098;2022-08-02T18:45:58;1.48;;;1.48;;
8610;SDS011;4343;53.648;10.098;2022-08-02T18:48:25;1.83;;;1.75;;
8610;SDS011;4343;53.648;10.098;2022-08-02T18:50:51;1.95;;;1.85;;
8610;SDS011;4343;53.648;10.098;2022-08-02T18:53:16;1.80;;;1.80;;
8610;SDS011;4343;53.648;10.098;2022-08-02T18:55:42;1.98;;;1.90;;
8610;SDS011;4343;53.648;10.098;2022-08-02T18:58:08;2.30;;;2.20;;
8610;SDS011;4343;53.648;10.098;2022-08-02T19:00:34;2.10;;;2.10;;
8610;SDS011;4343;53.648;10.098;2022-08-02T19:03:00;2.50;;;2.10;;
8610;SDS011;4343;53.648;10.098;2022-08-02T19:05:26;2.28;;;2.05;;
8610;SDS011;4343;53.648;10.098;2022-08-02T19:07:52;2.08;;;1.98;;
8610;SDS011;4343;53.648;10.098;2022-08-02T19:10:18;2.20;;;2.10;;
8610;SDS011;4343;53.648;10.098;2022-08-02T19:12:44;2.20;;;2.10;;
8610;SDS011;4343;53.648;10.098;2022-08-02T19:15:10;1.85;;;1.75;;
8610;SDS011;4343;53.648;10.098;2022-08-02T19:17:38;2.13;;;2.00;;
8610;SDS011;4343;53.648;10.098;2022-08-02T19:20:04;2.08;;;1.88;;
8610;SDS011;4343;53.648;10.098;2022-08-02T19:22:30;2.75;;;2.28;;
8610;SDS011;4343;53.648;10.098;2022-08-02T19:24:56;2.00;;;1.90;;
8610;SDS011;4343;53.648;10.098;2022-08-02T19:27:22;2.13;;;2.03;;
8610;SDS011;4343;53.648;10.098;2022-08-02T19:29:48;2.00;;;1.90;;
8610;SDS011;4343;53.648;10.098;2022-08-02T19:32:14;2.10;;;2.00;;
8610;SDS011;4343;53.648;10.098;2022-08-02T19:34:40;3.90;;;2.58;;
8610;SDS011;4343;53.648;10.098;2022-08-02T19:37:05;2.50;;;2.40;;
8610;SDS011;4343;53.648;10.098;2022-08-02T19:39:31;2.60;;;2.10;;
8610;SDS011;4343;53.648;10.098;2022-08-02T19:41:56;2.40;;;2.30;;
8610;SDS011;4343;53.648;10.098;2022-08-02T19:44:22;2.58;;;2.40;;
8610;SDS011;4343;53.648;10.098;2022-08-02T19:46:47;2.40;;;2.30;;
8610;SDS011;4343;53.648;10.098;2022-08-02T19:49:13;2.63;;;2.47;;
8610;SDS011;4343;53.648;10.098;2022-08-02T19:51:38;2.00;;;2.00;;
8610;SDS011;4343;53.648;10.098;2022-08-02T19:54:04;2.58;;;2.33;;
8610;SDS011;4343;53.648;10.098;2022-08-02T19:56:29;2.50;;;2.30;;
8610;SDS011;4343;53.648;10.098;2022-08-02T19:58:55;2.38;;;2.28;;
8610;SDS011;4343;53.648;10.098;2022-08-02T20:01:23;2.50;;;2.40;;
8610;SDS011;4343;53.648;10.098;2022-08-02T20:03:49;2.78;;;2.55;;
8610;SDS011;4343;53.648;10.098;2022-08-02T20:06:15;2.55;;;2.40;;
8610;SDS011;4343;53.648;10.098;2022-08-02T20:08:41;2.58;;;2.38;;
8610;SDS011;4343;53.648;10.098;2022-08-02T20:11:06;2.65;;;2.53;;
8610;SDS011;4343;53.648;10.098;2022-08-02T20:13:32;2.80;;;2.60;;
8610;SDS011;4343;53.648;10.098;2022-08-02T20:15:58;2.25;;;2.15;;
8610;SDS011;4343;53.648;10.098;2022-08-02T20:18:24;2.58;;;2.47;;
8610;SDS011;4343;53.648;10.098;2022-08-02T20:20:51;2.63;;;2.53;;
8610;SDS011;4343;53.648;10.098;2022-08-02T20:23:17;2.60;;;2.50;;
8610;SDS011;4343;53.648;10.098;2022-08-02T20:25:44;2.50;;;2.40;;
8610;SDS011;4343;53.648;10.098;2022-08-02T20:28:10;2.42;;;2.28;;
8610;SDS011;4343;53.648;10.098;2022-08-02T20:30:36;2.40;;;2.30;;
8610;SDS011;4343;53.648;10.098;2022-08-02T20:33:03;3.15;;;2.13;;
8610;SDS011;4343;53.648;10.098;2022-08-02T20:35:29;2.20;;;2.10;;
8610;SDS011;4343;53.648;10.098;2022-08-02T20:37:55;2.65;;;2.30;;
8610;SDS011;4343;53.648;10.098;2022-08-02T20:40:21;2.45;;;2.35;;
8610;SDS011;4343;53.648;10.098;2022-08-02T20:42:47;2.67;;;2.40;;
8610;SDS011;4343;53.648;10.098;2022-08-02T20:45:13;2.33;;;2.22;;
8610;SDS011;4343;53.648;10.098;2022-08-02T20:47:38;2.22;;;2.13;;
8610;SDS011;4343;53.648;10.098;2022-08-02T20:50:04;3.78;;;2.47;;
8610;SDS011;4343;53.648;10.098;2022-08-02T20:52:49;2.25;;;2.15;;
8610;SDS011;4343;53.648;10.098;2022-08-02T20:55:14;2.20;;;2.10;;
8610;SDS011;4343;53.648;10.098;2022-08-02T20:57:40;2.65;;;2.55;;
8610;SDS011;4343;53.648;10.098;2022-08-02T21:00:06;2.47;;;2.38;;
8610;SDS011;4343;53.648;10.098;2022-08-02T21:02:32;2.28;;;2.17;;
8610;SDS011;4343;53.648;10.098;2022-08-02T21:04:58;2.40;;;2.17;;
8610;SDS011;4343;53.648;10.098;2022-08-02T21:07:24;3.03;;;2.83;;
8610;SDS011;4343;53.648;10.098;2022-08-02T21:09:49;2.47;;;2.28;;
8610;SDS011;4343;53.648;10.098;2022-08-02T21:12:15;4.38;;;2.60;;
8610;SDS011;4343;53.648;10.098;2022-08-02T21:14:40;2.95;;;2.75;;
8610;SDS011;4343;53.648;10.098;2022-08-02T21:17:06;2.75;;;2.55;;
8610;SDS011;4343;53.648;10.098;2022-08-02T21:19:33;2.70;;;2.60;;
8610;SDS011;4343;53.648;10.098;2022-08-02T21:21:58;2.70;;;2.60;;
8610;SDS011;4343;53.648;10.098;2022-08-02T21:24:24;3.55;;;3.25;;
8610;SDS011;4343;53.648;10.098;2022-08-02T21:26:50;2.20;;;2.15;;
8610;SDS011;4343;53.648;10.098;2022-08-02T21:29:15;2.53;;;2.42;;
8610;SDS011;4343;53.648;10.098;2022-08-02T21:31:41;2.90;;;2.80;;
8610;SDS011;4343;53.648;10.098;2022-08-02T21:34:07;2.70;;;2.60;;
8610;SDS011;4343;53.648;10.098;2022-08-02T21:36:32;2.97;;;2.80;;
8610;SDS011;4343;53.648;10.098;2022-08-02T21:39:01;3.10;;;3.00;;
8610;SDS011;4343;53.648;10.098;2022-08-02T21:41:29;2.90;;;2.80;;
8610;SDS011;4343;53.648;10.098;2022-08-02T21:43:54;2.85;;;2.70;;
8610;SDS011;4343;53.648;10.098;2022-08-02T21:46:20;2.63;;;2.50;;
8610;SDS011;4343;53.648;10.098;2022-08-02T21:48:45;2.75;;;2.65;;
8610;SDS011;4343;53.648;10.098;2022-08-02T21:51:11;2.45;;;2.35;;
8610;SDS011;4343;53.648;10.098;2022-08-02T21:53:37;2.92;;;2.70;;
8610;SDS011;4343;53.648;10.098;2022-08-02T21:56:02;2.55;;;2.45;;
8610;SDS011;4343;53.648;10.098;2022-08-02T21:58:28;2.60;;;2.50;;